createdAt,value
2019-04-03T00:01:36.959Z,5.78
2019-04-03T00:04:06.733Z,6.12
2019-04-03T00:06:36.287Z,6.20
2019-04-03T00:09:07.404Z,6.28
2019-04-03T00:11:39.515Z,5.40
2019-04-03T00:14:08.412Z,5.60
2019-04-03T00:16:37.946Z,6.90
2019-04-03T00:19:07.489Z,6.22
2019-04-03T00:21:37.025Z,6.28
2019-04-03T00:24:06.922Z,7.67
2019-04-03T00:26:36.705Z,6.05
2019-04-03T00:29:06.202Z,6.90
2019-04-03T00:31:35.740Z,6.60
2019-04-03T00:34:05.312Z,5.78
2019-04-03T00:36:35.106Z,6.40
2019-04-03T00:39:07.109Z,6.33
2019-04-03T00:41:36.601Z,6.75
2019-04-03T00:44:06.419Z,8.55
2019-04-03T00:46:35.938Z,7.05
2019-04-03T00:49:05.813Z,7.03
2019-04-03T00:51:35.904Z,7.50
2019-04-03T00:54:05.674Z,10.72
2019-04-03T00:56:35.249Z,8.63
2019-04-03T00:59:05.095Z,7.25
2019-04-03T01:01:34.587Z,10.40
2019-04-03T01:04:04.643Z,7.42
2019-04-03T01:06:34.120Z,7.10
2019-04-03T01:09:05.542Z,7.50
2019-04-03T01:11:35.081Z,8.00
2019-04-03T01:14:05.348Z,10.38
2019-04-03T01:16:35.159Z,7.72
2019-04-03T01:19:05.769Z,9.18
2019-04-03T01:21:37.204Z,8.30
2019-04-03T01:24:08.340Z,8.65
2019-04-03T01:26:40.346Z,12.65
2019-04-03T01:29:10.621Z,7.28
2019-04-03T01:31:40.922Z,8.48
2019-04-03T01:34:10.411Z,9.03
2019-04-03T01:36:39.945Z,8.20
2019-04-03T01:39:09.478Z,8.10
2019-04-03T01:41:39.200Z,8.20
2019-04-03T01:44:08.986Z,8.60
2019-04-03T01:46:38.559Z,8.28
2019-04-03T01:49:08.363Z,8.80
2019-04-03T01:51:37.955Z,8.28
2019-04-03T01:54:07.480Z,10.53
2019-04-03T01:56:37.112Z,9.40
2019-04-03T01:59:07.365Z,8.65
2019-04-03T02:01:38.648Z,7.47
2019-04-03T02:04:08.500Z,8.30
2019-04-03T02:06:38.082Z,8.48
2019-04-03T02:09:10.545Z,9.13
2019-04-03T02:11:40.482Z,8.45
2019-04-03T02:14:10.253Z,8.30
2019-04-03T02:16:39.843Z,9.43
2019-04-03T02:19:09.377Z,9.03
2019-04-03T02:21:38.980Z,8.20
2019-04-03T02:24:08.750Z,8.80
2019-04-03T02:26:38.345Z,9.00
2019-04-03T02:29:08.819Z,8.03
2019-04-03T02:31:39.082Z,9.65
2019-04-03T02:34:08.833Z,9.68
2019-04-03T02:36:38.415Z,8.83
2019-04-03T02:39:08.309Z,9.30
2019-04-03T02:41:37.991Z,8.05
2019-04-03T02:44:07.567Z,7.72
2019-04-03T02:46:37.275Z,9.75
2019-04-03T02:49:09.675Z,8.23
2019-04-03T02:51:38.575Z,8.80
2019-04-03T02:54:17.675Z,9.08
2019-04-03T02:56:47.473Z,7.80
2019-04-03T02:59:16.963Z,8.08
2019-04-03T03:01:47.046Z,8.65
2019-04-03T03:04:20.558Z,7.83
2019-04-03T03:06:48.326Z,9.05
2019-04-03T03:09:17.851Z,9.60
2019-04-03T03:11:47.726Z,9.85
2019-04-03T03:14:18.218Z,9.55
2019-04-03T03:16:50.347Z,9.48
2019-04-03T03:19:19.626Z,8.78
2019-04-03T03:21:49.479Z,10.53
2019-04-03T03:24:19.797Z,11.53
2019-04-03T03:26:49.563Z,10.13
2019-04-03T03:29:24.075Z,9.18
2019-04-03T03:32:15.513Z,10.13
2019-04-03T03:34:45.782Z,9.88
2019-04-03T03:37:00.005Z,12.15
2019-04-03T03:39:26.398Z,9.43
2019-04-03T03:41:58.587Z,10.15
2019-04-03T03:44:29.314Z,11.57
2019-04-03T03:47:01.047Z,10.60
2019-04-03T03:49:31.422Z,10.28
2019-04-03T03:52:04.042Z,10.05
2019-04-03T03:54:33.109Z,9.55
2019-04-03T03:57:05.027Z,8.95
2019-04-03T03:59:34.945Z,10.55
2019-04-03T04:02:06.115Z,9.70
2019-04-03T04:04:36.348Z,9.98
2019-04-03T04:07:05.963Z,9.55
2019-04-03T04:09:36.080Z,9.70
2019-04-03T04:12:07.352Z,10.20
2019-04-03T04:14:38.269Z,10.68
2019-04-03T04:17:12.454Z,9.60
2019-04-03T04:19:40.156Z,9.75
2019-04-03T04:22:09.888Z,10.88
2019-04-03T04:24:39.972Z,9.83
2019-04-03T04:27:09.932Z,11.10
2019-04-03T04:29:41.815Z,9.78
2019-04-03T04:32:14.520Z,10.10
2019-04-03T04:34:42.934Z,10.53
2019-04-03T04:37:12.551Z,9.45
2019-04-03T04:39:42.139Z,10.08
2019-04-03T04:42:11.969Z,10.32
2019-04-03T04:44:41.638Z,10.08
2019-04-03T04:47:11.096Z,11.60
2019-04-03T04:49:40.617Z,10.40
2019-04-03T04:52:10.492Z,10.60
2019-04-03T04:54:42.795Z,10.30
2019-04-03T04:57:11.634Z,10.20
2019-04-03T04:59:41.277Z,11.40
2019-04-03T05:02:10.894Z,11.18
2019-04-03T05:04:40.757Z,10.85
2019-04-03T05:07:10.849Z,10.88
2019-04-03T05:09:40.385Z,11.57
2019-04-03T05:12:10.350Z,12.78
2019-04-03T05:14:40.143Z,10.82
2019-04-03T05:17:09.863Z,13.25
2019-04-03T05:19:39.455Z,14.68
2019-04-03T05:22:09.308Z,12.78
2019-04-03T05:24:39.641Z,12.88
2019-04-03T05:27:09.150Z,12.78
2019-04-03T05:29:38.957Z,11.12
2019-04-03T05:32:10.483Z,11.22
2019-04-03T05:34:40.069Z,10.63
2019-04-03T05:37:11.689Z,12.05
2019-04-03T05:39:40.805Z,12.13
2019-04-03T05:42:10.396Z,11.05
2019-04-03T05:44:40.192Z,13.35
2019-04-03T05:47:09.964Z,12.68
2019-04-03T05:49:39.722Z,12.15
2019-04-03T05:52:09.260Z,13.40
2019-04-03T05:54:39.316Z,11.68
2019-04-03T05:57:09.429Z,12.63
2019-04-03T05:59:39.198Z,12.47
2019-04-03T06:02:15.751Z,13.48
2019-04-03T06:04:40.886Z,16.32
2019-04-03T06:07:11.105Z,14.90
2019-04-03T06:09:40.638Z,13.93
2019-04-03T06:12:12.983Z,15.18
2019-04-03T06:14:41.658Z,16.73
2019-04-03T06:17:11.453Z,20.08
2019-04-03T06:19:40.960Z,15.60
2019-04-03T06:22:10.814Z,13.00
2019-04-03T06:24:40.390Z,13.22
2019-04-03T06:27:10.507Z,13.93
2019-04-03T06:29:40.346Z,12.65
2019-04-03T06:32:09.858Z,12.88
2019-04-03T06:34:42.698Z,12.10
2019-04-03T06:37:10.639Z,12.18
2019-04-03T06:39:40.339Z,12.68
2019-04-03T06:42:12.851Z,14.63
2019-04-03T06:44:41.067Z,14.33
2019-04-03T06:47:10.744Z,13.72
2019-04-03T06:49:41.047Z,15.28
2019-04-03T06:52:11.113Z,12.40
2019-04-03T06:54:43.847Z,11.63
2019-04-03T06:57:13.884Z,12.20
2019-04-03T06:59:43.930Z,14.00
2019-04-03T07:02:13.563Z,12.95
2019-04-03T07:04:43.347Z,11.65
2019-04-03T07:07:13.153Z,12.53
2019-04-03T07:09:42.723Z,12.63
2019-04-03T07:12:12.388Z,13.98
2019-04-03T07:14:42.246Z,13.38
2019-04-03T07:17:11.776Z,11.73
2019-04-03T07:19:41.326Z,13.15
2019-04-03T07:22:10.869Z,13.08
2019-04-03T07:24:40.402Z,14.25
2019-04-03T07:27:09.944Z,12.50
2019-04-03T07:29:39.707Z,13.35
2019-04-03T07:32:09.235Z,15.45
2019-04-03T07:34:38.800Z,11.70
2019-04-03T07:37:08.330Z,12.33
2019-04-03T07:39:38.331Z,11.55
2019-04-03T07:42:07.847Z,12.55
2019-04-03T07:44:37.638Z,15.68
2019-04-03T07:47:07.153Z,10.68
2019-04-03T07:49:37.730Z,10.32
2019-04-03T07:52:08.187Z,11.40
2019-04-03T07:54:37.740Z,10.00
2019-04-03T07:57:09.862Z,11.43
2019-04-03T07:59:38.482Z,10.63
2019-04-03T08:02:07.977Z,9.88
2019-04-03T08:04:37.664Z,8.50
2019-04-03T08:07:07.635Z,10.03
2019-04-03T08:09:37.351Z,9.00
2019-04-03T08:12:07.135Z,9.80
2019-04-03T08:14:36.647Z,9.48
2019-04-03T08:17:06.578Z,9.13
2019-04-03T08:19:36.366Z,9.68
2019-04-03T08:22:06.015Z,9.63
2019-04-03T08:24:35.572Z,9.43
2019-04-03T08:27:07.869Z,9.43
2019-04-03T08:29:38.275Z,8.13
2019-04-03T08:32:07.648Z,9.50
2019-04-03T08:34:37.189Z,8.98
2019-04-03T08:37:09.719Z,8.53
2019-04-03T08:39:38.259Z,8.73
2019-04-03T08:42:07.800Z,9.38
2019-04-03T08:44:37.703Z,8.35
2019-04-03T08:47:07.240Z,9.38
2019-04-03T08:49:36.775Z,10.08
2019-04-03T08:52:06.380Z,9.78
2019-04-03T08:54:36.158Z,9.80
2019-04-03T08:57:05.717Z,7.90
2019-04-03T08:59:35.280Z,9.03
2019-04-03T09:02:05.814Z,10.00
2019-04-03T09:04:35.978Z,8.23
2019-04-03T09:07:05.848Z,8.57
2019-04-03T09:09:36.024Z,8.37
2019-04-03T09:12:07.361Z,12.53
2019-04-03T09:14:37.115Z,9.43
2019-04-03T09:17:06.699Z,8.60
2019-04-03T09:19:36.244Z,8.37
2019-04-03T09:22:05.755Z,8.67
2019-04-03T09:24:35.321Z,8.20
2019-04-03T09:27:08.199Z,8.40
2019-04-03T09:29:36.580Z,7.77
2019-04-03T09:32:06.356Z,9.20
2019-04-03T09:34:35.966Z,7.90
2019-04-03T09:37:07.045Z,8.77
2019-04-03T09:39:36.730Z,7.78
2019-04-03T09:42:06.284Z,7.63
2019-04-03T09:44:35.804Z,9.00
2019-04-03T09:47:05.432Z,9.40
2019-04-03T09:49:34.984Z,7.42
2019-04-03T09:52:05.021Z,8.90
2019-04-03T09:54:35.000Z,7.23
2019-04-03T09:57:05.755Z,8.10
2019-04-03T09:59:37.452Z,8.97
2019-04-03T10:02:06.706Z,7.40
2019-04-03T10:04:36.605Z,8.33
2019-04-03T10:07:06.304Z,8.87
2019-04-03T10:09:38.484Z,8.27
2019-04-03T10:12:07.055Z,8.20
2019-04-03T10:14:36.622Z,8.80
2019-04-03T10:17:07.094Z,7.60
2019-04-03T10:19:37.375Z,8.27
2019-04-03T10:22:07.530Z,8.80
2019-04-03T10:24:37.562Z,10.00
2019-04-03T10:27:10.733Z,9.57
2019-04-03T10:29:38.729Z,20.27
2019-04-03T10:32:08.479Z,19.60
2019-04-03T10:34:38.014Z,21.97
2019-04-03T10:37:07.585Z,23.17
2019-04-03T10:39:40.029Z,23.73
2019-04-03T10:42:08.309Z,25.25
2019-04-03T10:44:37.874Z,24.07
2019-04-03T10:47:07.386Z,27.67
2019-04-03T10:49:36.999Z,26.52
2019-04-03T10:52:06.841Z,30.68
2019-04-03T10:54:38.026Z,30.23
2019-04-03T10:57:07.721Z,32.48
2019-04-03T10:59:37.285Z,30.55
2019-04-03T11:02:06.808Z,30.77
2019-04-03T11:04:36.402Z,28.05
2019-04-03T11:07:05.963Z,27.73
2019-04-03T11:09:35.875Z,28.75
2019-04-03T11:12:05.444Z,32.08
2019-04-03T11:14:35.024Z,30.37
2019-04-03T11:17:04.853Z,25.20
2019-04-03T11:19:36.942Z,29.77
2019-04-03T11:22:05.519Z,27.82
2019-04-03T11:24:37.721Z,25.23
2019-04-03T11:27:07.068Z,23.25
2019-04-03T11:29:36.692Z,26.75
2019-04-03T11:32:08.520Z,26.30
2019-04-03T11:34:37.434Z,29.32
2019-04-03T11:37:07.042Z,28.75
2019-04-03T11:39:37.540Z,32.53
2019-04-03T11:42:07.847Z,25.92
2019-04-03T11:44:37.440Z,30.52
2019-04-03T11:47:07.178Z,30.57
2019-04-03T11:49:36.715Z,27.50
2019-04-03T11:52:06.249Z,28.15
2019-04-03T11:54:36.991Z,26.87
2019-04-03T11:57:06.991Z,29.45
2019-04-03T11:59:36.509Z,31.23
2019-04-03T12:02:07.857Z,27.62
2019-04-03T12:04:37.925Z,31.68
2019-04-03T12:07:07.533Z,32.10
2019-04-03T12:09:37.087Z,32.40
2019-04-03T12:12:08.922Z,36.30
2019-04-03T12:14:38.094Z,31.27
2019-04-03T12:17:07.845Z,37.08
2019-04-03T12:19:37.969Z,39.67
2019-04-03T12:22:08.119Z,33.92
2019-04-03T12:24:37.641Z,35.38
2019-04-03T12:27:07.209Z,28.45
2019-04-03T12:29:36.748Z,36.58
2019-04-03T12:32:09.080Z,31.48
2019-04-03T12:34:38.286Z,32.42
2019-04-03T12:37:08.397Z,29.27
2019-04-03T12:39:37.929Z,26.82
2019-04-03T12:42:08.734Z,26.07
2019-04-03T12:44:38.917Z,28.00
2019-04-03T12:47:12.415Z,28.42
2019-04-03T12:49:39.661Z,28.98
2019-04-03T12:52:09.280Z,24.52
2019-04-03T12:54:38.866Z,29.10
2019-04-03T12:57:08.792Z,28.55
2019-04-03T12:59:40.009Z,28.27
2019-04-03T13:02:10.517Z,25.43
2019-04-03T13:04:40.441Z,25.20
2019-04-03T13:07:13.426Z,22.17
2019-04-03T13:09:41.285Z,20.00
2019-04-03T13:12:11.878Z,21.60
2019-04-03T13:14:41.999Z,25.95
2019-04-03T13:17:13.511Z,24.30
2019-04-03T13:19:43.023Z,20.68
2019-04-03T13:22:12.641Z,23.00
2019-04-03T13:24:42.217Z,20.27
2019-04-03T13:27:12.360Z,17.85
2019-04-03T13:29:41.864Z,18.65
2019-04-03T13:32:11.503Z,17.67
2019-04-03T13:34:42.691Z,17.50
2019-04-03T13:37:12.382Z,16.27
2019-04-03T13:39:42.154Z,14.50
2019-04-03T13:42:13.909Z,16.70
2019-04-03T13:44:43.176Z,15.15
2019-04-03T13:47:12.783Z,14.78
2019-04-03T13:49:42.327Z,15.60
2019-04-03T13:52:12.163Z,16.52
2019-04-03T13:54:41.770Z,14.00
2019-04-03T13:57:11.885Z,16.17
2019-04-03T13:59:42.708Z,14.47
2019-04-03T14:02:13.601Z,13.40
2019-04-03T14:04:43.574Z,13.98
2019-04-03T14:07:13.438Z,13.32
2019-04-03T14:09:42.991Z,13.75
2019-04-03T14:12:12.831Z,13.05
2019-04-03T14:14:42.510Z,9.63
2019-04-03T14:17:13.849Z,10.48
2019-04-03T14:19:46.709Z,8.15
2019-04-03T14:22:14.629Z,9.33
2019-04-03T14:24:47.483Z,9.65
2019-04-03T14:27:22.745Z,11.15
2019-04-03T14:29:47.208Z,10.05
2019-04-03T14:32:18.456Z,10.10
2019-04-03T14:34:48.060Z,9.20
2019-04-03T14:37:17.652Z,9.90
2019-04-03T14:39:47.487Z,8.73
2019-04-03T14:42:17.007Z,9.35
2019-04-03T14:44:47.032Z,9.65
2019-04-03T14:47:16.935Z,9.73
2019-04-03T14:49:46.813Z,9.70
2019-04-03T14:52:16.863Z,7.97
2019-04-03T14:54:47.157Z,6.33
2019-04-03T14:57:22.440Z,5.80
2019-04-03T14:59:48.061Z,6.70
2019-04-03T15:02:18.032Z,6.20
2019-04-03T15:04:48.085Z,5.33
2019-04-03T15:07:18.739Z,6.27
2019-04-03T15:09:48.639Z,5.53
2019-04-03T15:12:18.214Z,7.13
2019-04-03T15:14:48.160Z,5.87
2019-04-03T15:17:18.250Z,5.93
2019-04-03T15:19:48.349Z,6.78
2019-04-03T15:22:17.964Z,10.00
2019-04-03T15:24:48.022Z,7.70
2019-04-03T15:27:18.024Z,8.48
2019-04-03T15:29:47.637Z,7.30
2019-04-03T15:32:18.636Z,11.12
2019-04-03T15:34:50.643Z,11.10
2019-04-03T15:37:20.016Z,11.22
2019-04-03T15:39:56.454Z,10.80
2019-04-03T15:42:20.977Z,8.33
2019-04-03T15:44:52.102Z,8.83
2019-04-03T15:47:33.907Z,7.97
2019-04-03T15:49:53.289Z,9.53
2019-04-03T15:52:22.898Z,9.18
2019-04-03T15:54:53.193Z,8.10
2019-04-03T15:57:23.219Z,7.80
2019-04-03T15:59:53.390Z,8.40
2019-04-03T16:02:23.684Z,9.48
2019-04-03T16:04:53.837Z,10.58
2019-04-03T16:07:23.424Z,11.43
2019-04-03T16:09:53.008Z,9.63
2019-04-03T16:12:22.619Z,11.48
2019-04-03T16:14:52.159Z,10.75
2019-04-03T16:17:22.158Z,10.03
2019-04-03T16:19:52.902Z,9.70
2019-04-03T16:22:22.946Z,10.18
2019-04-03T16:24:53.824Z,12.33
2019-04-03T16:27:29.118Z,53.42
2019-04-03T16:29:57.833Z,72.65
2019-04-03T16:32:28.257Z,16.85
2019-04-03T16:34:58.879Z,20.75
2019-04-03T16:37:28.721Z,13.83
2019-04-03T16:39:58.248Z,9.43
2019-04-03T16:42:27.874Z,11.43
2019-04-03T16:44:58.342Z,7.67
2019-04-03T16:47:28.135Z,8.48
2019-04-03T16:49:57.716Z,10.60
2019-04-03T16:52:30.102Z,10.53
2019-04-03T16:54:58.824Z,14.15
2019-04-03T16:57:28.688Z,12.10
2019-04-03T16:59:58.621Z,11.60
2019-04-03T17:02:29.785Z,12.98
2019-04-03T17:04:59.690Z,13.43
2019-04-03T17:07:29.296Z,13.13
2019-04-03T17:09:59.465Z,16.20
2019-04-03T17:12:29.316Z,19.37
2019-04-03T17:14:59.295Z,13.78
2019-04-03T17:17:29.242Z,14.13
2019-04-03T17:19:59.087Z,13.38
2019-04-03T17:22:28.702Z,14.95
2019-04-03T17:24:58.996Z,13.20
2019-04-03T17:27:30.194Z,13.38
2019-04-03T17:30:00.173Z,13.20
2019-04-03T17:32:31.174Z,13.68
2019-04-03T17:35:01.619Z,15.10
2019-04-03T17:37:31.153Z,19.48
2019-04-03T17:40:00.896Z,16.27
2019-04-03T17:42:30.512Z,17.92
2019-04-03T17:45:00.156Z,18.07
2019-04-03T17:47:29.722Z,21.15
2019-04-03T17:49:59.910Z,17.55
2019-04-03T17:52:29.579Z,18.35
2019-04-03T17:54:59.458Z,19.92
2019-04-03T17:57:29.100Z,18.55
2019-04-03T17:59:58.978Z,20.05
2019-04-03T18:02:30.027Z,20.12
2019-04-03T18:04:59.627Z,21.50
2019-04-03T18:07:29.297Z,18.60
2019-04-03T18:09:59.133Z,20.70
2019-04-03T18:12:28.745Z,22.15
2019-04-03T18:14:58.615Z,21.10
2019-04-03T18:17:28.157Z,21.10
2019-04-03T18:19:57.902Z,23.15
2019-04-03T18:22:27.456Z,22.37
2019-04-03T18:24:57.049Z,20.00
2019-04-03T18:27:26.650Z,21.23
2019-04-03T18:29:56.469Z,23.65
2019-04-03T18:32:26.058Z,21.95
2019-04-03T18:34:55.939Z,21.40
2019-04-03T18:37:25.484Z,20.23
2019-04-03T18:39:55.135Z,21.30
2019-04-03T18:42:24.940Z,20.05
2019-04-03T18:44:55.962Z,19.70
2019-04-03T18:47:25.821Z,21.75
2019-04-03T18:49:55.685Z,20.80
2019-04-03T18:52:25.333Z,20.05
2019-04-03T18:54:54.948Z,21.62
2019-04-03T18:57:24.620Z,21.40
2019-04-03T18:59:56.223Z,22.60
2019-04-03T19:02:25.772Z,22.17
2019-04-03T19:05:01.725Z,20.08
2019-04-03T19:07:27.262Z,21.12
2019-04-03T19:10:06.243Z,22.50
2019-04-03T19:12:35.643Z,23.00
2019-04-03T19:15:02.527Z,28.10
2019-04-03T19:17:30.938Z,26.85
2019-04-03T19:20:10.183Z,25.48
2019-04-03T19:22:32.135Z,22.37
2019-04-03T19:25:01.738Z,20.35
2019-04-03T19:27:33.018Z,20.90
2019-04-03T19:30:02.648Z,16.42
2019-04-03T19:32:32.273Z,13.28
2019-04-03T19:35:02.161Z,14.00
2019-04-03T19:37:34.082Z,16.87
2019-04-03T19:40:03.185Z,14.58
2019-04-03T19:42:32.768Z,17.20
2019-04-03T19:45:02.371Z,16.17
2019-04-03T19:47:32.533Z,14.95
2019-04-03T19:50:02.269Z,14.45
2019-04-03T19:52:31.877Z,15.50
2019-04-03T19:55:02.642Z,20.30
2019-04-03T19:57:34.223Z,17.35
2019-04-03T20:00:04.031Z,20.23
2019-04-03T20:02:33.641Z,16.10
2019-04-03T20:05:03.515Z,18.42
2019-04-03T20:07:34.299Z,18.48
2019-04-03T20:10:05.987Z,19.65
2019-04-03T20:12:35.807Z,17.75
2019-04-03T20:15:07.501Z,17.65
2019-04-03T20:17:37.191Z,17.05
2019-04-03T20:20:07.423Z,15.48
2019-04-03T20:22:37.880Z,18.70
2019-04-03T20:25:08.955Z,16.75
2019-04-03T20:27:38.625Z,19.80
2019-04-03T20:30:09.758Z,17.45
2019-04-03T20:32:40.844Z,14.95
2019-04-03T20:35:10.702Z,16.65
2019-04-03T20:37:40.338Z,16.95
2019-04-03T20:40:11.593Z,17.57
2019-04-03T20:42:41.610Z,17.45
2019-04-03T20:45:11.254Z,18.05
2019-04-03T20:47:40.895Z,21.35
2019-04-03T20:50:10.480Z,24.72
2019-04-03T20:52:40.094Z,23.47
2019-04-03T20:55:09.856Z,23.27
2019-04-03T20:57:39.514Z,22.27
2019-04-03T21:00:13.618Z,22.70
2019-04-03T21:02:43.323Z,21.15
2019-04-03T21:05:13.460Z,20.50
2019-04-03T21:07:43.310Z,21.85
2019-04-03T21:10:13.160Z,18.90
2019-04-03T21:12:42.699Z,17.82
2019-04-03T21:15:14.209Z,18.60
2019-04-03T21:17:43.721Z,17.98
2019-04-03T21:20:13.613Z,20.20
2019-04-03T21:22:43.548Z,17.57
2019-04-03T21:25:13.460Z,14.35
2019-04-03T21:27:43.041Z,14.63
2019-04-03T21:30:13.117Z,14.40
2019-04-03T21:32:42.724Z,17.35
2019-04-03T21:35:12.511Z,13.70
2019-04-03T21:37:42.129Z,12.13
2019-04-03T21:40:14.730Z,13.30
2019-04-03T21:42:43.209Z,14.00
2019-04-03T21:45:13.346Z,12.82
2019-04-03T21:47:43.287Z,14.87
2019-04-03T21:50:12.955Z,14.40
2019-04-03T21:52:42.533Z,12.82
2019-04-03T21:55:12.619Z,12.85
2019-04-03T21:57:42.513Z,14.10
2019-04-03T22:00:14.437Z,10.40
2019-04-03T22:02:45.237Z,11.03
2019-04-03T22:05:15.026Z,8.73
2019-04-03T22:07:44.906Z,8.15
2019-04-03T22:10:15.091Z,8.20
2019-04-03T22:12:44.735Z,6.65
2019-04-03T22:15:14.586Z,8.80
2019-04-03T22:17:44.267Z,7.65
2019-04-03T22:20:13.990Z,5.75
2019-04-03T22:22:43.848Z,7.58
2019-04-03T22:25:14.003Z,5.75
2019-04-03T22:27:43.722Z,5.95
2019-04-03T22:30:13.652Z,7.10
2019-04-03T22:32:43.493Z,5.45
2019-04-03T22:35:14.001Z,6.33
2019-04-03T22:37:43.866Z,6.72
2019-04-03T22:40:13.494Z,5.55
2019-04-03T22:42:45.353Z,5.00
2019-04-03T22:45:14.373Z,5.97
2019-04-03T22:47:47.422Z,4.10
2019-04-03T22:50:15.786Z,5.83
2019-04-03T22:52:45.427Z,4.60
2019-04-03T22:55:15.484Z,4.40
2019-04-03T22:57:45.606Z,3.60
2019-04-03T23:00:15.346Z,4.33
2019-04-03T23:02:44.978Z,4.50
2019-04-03T23:05:16.900Z,3.35
2019-04-03T23:07:46.382Z,3.85
2019-04-03T23:10:15.981Z,4.70
2019-04-03T23:12:45.645Z,4.95
2019-04-03T23:15:15.263Z,6.60
2019-04-03T23:17:45.433Z,4.42
2019-04-03T23:20:15.109Z,4.90
2019-04-03T23:22:44.762Z,4.67
2019-04-03T23:25:14.392Z,5.10
2019-04-03T23:27:44.111Z,5.65
2019-04-03T23:30:13.865Z,4.35
2019-04-03T23:32:45.745Z,4.47
2019-04-03T23:35:15.101Z,4.92
2019-04-03T23:37:45.730Z,5.58
2019-04-03T23:40:15.443Z,5.42
2019-04-03T23:42:45.112Z,8.85
2019-04-03T23:45:15.317Z,4.15
2019-04-03T23:47:46.713Z,5.33
2019-04-03T23:50:16.329Z,5.22
2019-04-03T23:52:45.992Z,5.33
2019-04-03T23:55:15.598Z,5.28
2019-04-03T23:57:45.238Z,5.30
